sensor_id;sensor_type;location;lat;lon;timestamp;P1;durP1;ratioP1;P2;durP2;ratioP2
25125;SDS011;13106;50.808;5.670;2022-10-28T00:01:22;12.38;;;3.85;;
25125;SDS011;13106;50.808;5.670;2022-10-28T00:03:50;15.30;;;3.92;;
25125;SDS011;13106;50.808;5.670;2022-10-28T00:06:18;15.60;;;3.97;;
25125;SDS011;13106;50.808;5.670;2022-10-28T00:08:44;17.70;;;4.05;;
25125;SDS011;13106;50.808;5.670;2022-10-28T00:11:15;17.25;;;4.22;;
25125;SDS011;13106;50.808;5.670;2022-10-28T00:13:42;15.52;;;3.80;;
25125;SDS011;13106;50.808;5.670;2022-10-28T00:18:35;24.92;;;5.00;;
25125;SDS011;13106;50.808;5.670;2022-10-28T00:21:02;23.02;;;4.53;;
25125;SDS011;13106;50.808;5.670;2022-10-28T00:23:29;21.73;;;5.22;;
25125;SDS011;13106;50.808;5.670;2022-10-28T00:26:02;19.63;;;4.10;;
25125;SDS011;13106;50.808;5.670;2022-10-28T00:28:27;21.80;;;4.78;;
25125;SDS011;13106;50.808;5.670;2022-10-28T00:30:53;20.55;;;4.75;;
25125;SDS011;13106;50.808;5.670;2022-10-28T00:33:20;21.05;;;4.53;;
25125;SDS011;13106;50.808;5.670;2022-10-28T00:35:46;17.20;;;4.97;;
25125;SDS011;13106;50.808;5.670;2022-10-28T00:38:12;15.65;;;4.72;;
25125;SDS011;13106;50.808;5.670;2022-10-28T00:40:38;16.58;;;4.60;;
25125;SDS011;13106;50.808;5.670;2022-10-28T00:43:04;13.60;;;3.75;;
25125;SDS011;13106;50.808;5.670;2022-10-28T00:45:30;12.75;;;3.72;;
25125;SDS011;13106;50.808;5.670;2022-10-28T00:47:56;15.60;;;3.95;;
25125;SDS011;13106;50.808;5.670;2022-10-28T00:50:40;15.27;;;4.03;;
25125;SDS011;13106;50.808;5.670;2022-10-28T00:53:18;14.95;;;4.18;;
25125;SDS011;13106;50.808;5.670;2022-10-28T00:55:46;19.95;;;4.05;;
25125;SDS011;13106;50.808;5.670;2022-10-28T00:58:12;17.13;;;4.65;;
25125;SDS011;13106;50.808;5.670;2022-10-28T01:00:39;17.30;;;4.07;;
25125;SDS011;13106;50.808;5.670;2022-10-28T01:03:05;15.30;;;4.15;;
25125;SDS011;13106;50.808;5.670;2022-10-28T01:05:33;16.50;;;4.53;;
25125;SDS011;13106;50.808;5.670;2022-10-28T01:08:00;11.68;;;4.15;;
25125;SDS011;13106;50.808;5.670;2022-10-28T01:18:44;17.15;;;4.03;;
25125;SDS011;13106;50.808;5.670;2022-10-28T01:31:40;19.55;;;4.70;;
25125;SDS011;13106;50.808;5.670;2022-10-28T01:41:33;27.13;;;5.22;;
25125;SDS011;13106;50.808;5.670;2022-10-28T01:44:14;16.70;;;4.45;;
25125;SDS011;13106;50.808;5.670;2022-10-28T01:49:17;17.63;;;4.00;;
25125;SDS011;13106;50.808;5.670;2022-10-28T01:51:45;13.23;;;3.85;;
25125;SDS011;13106;50.808;5.670;2022-10-28T01:54:13;16.05;;;4.25;;
25125;SDS011;13106;50.808;5.670;2022-10-28T01:56:40;14.43;;;4.30;;
25125;SDS011;13106;50.808;5.670;2022-10-28T01:59:08;18.38;;;4.50;;
25125;SDS011;13106;50.808;5.670;2022-10-28T02:01:36;16.40;;;4.50;;
25125;SDS011;13106;50.808;5.670;2022-10-28T02:04:02;17.55;;;4.60;;
25125;SDS011;13106;50.808;5.670;2022-10-28T02:06:28;15.88;;;4.15;;
25125;SDS011;13106;50.808;5.670;2022-10-28T02:09:15;13.43;;;4.30;;
25125;SDS011;13106;50.808;5.670;2022-10-28T02:22:24;19.33;;;4.68;;
25125;SDS011;13106;50.808;5.670;2022-10-28T02:27:57;15.45;;;4.63;;
25125;SDS011;13106;50.808;5.670;2022-10-28T02:32:52;13.40;;;4.07;;
25125;SDS011;13106;50.808;5.670;2022-10-28T02:35:35;22.08;;;4.55;;
25125;SDS011;13106;50.808;5.670;2022-10-28T02:38:03;13.63;;;3.95;;
25125;SDS011;13106;50.808;5.670;2022-10-28T02:42:59;15.98;;;4.28;;
25125;SDS011;13106;50.808;5.670;2022-10-28T02:45:28;11.07;;;4.03;;
25125;SDS011;13106;50.808;5.670;2022-10-28T02:47:56;12.77;;;3.97;;
25125;SDS011;13106;50.808;5.670;2022-10-28T02:50:25;18.58;;;4.57;;
25125;SDS011;13106;50.808;5.670;2022-10-28T02:52:55;14.95;;;4.63;;
25125;SDS011;13106;50.808;5.670;2022-10-28T02:55:23;18.17;;;4.00;;
25125;SDS011;13106;50.808;5.670;2022-10-28T02:57:50;14.45;;;4.13;;
25125;SDS011;13106;50.808;5.670;2022-10-28T03:00:19;14.18;;;4.55;;
25125;SDS011;13106;50.808;5.670;2022-10-28T03:02:47;11.27;;;4.40;;
25125;SDS011;13106;50.808;5.670;2022-10-28T03:05:13;12.43;;;4.18;;
25125;SDS011;13106;50.808;5.670;2022-10-28T03:07:39;12.35;;;4.43;;
25125;SDS011;13106;50.808;5.670;2022-10-28T03:10:05;12.38;;;4.13;;
25125;SDS011;13106;50.808;5.670;2022-10-28T03:12:31;12.68;;;4.07;;
25125;SDS011;13106;50.808;5.670;2022-10-28T03:14:57;14.13;;;4.65;;
25125;SDS011;13106;50.808;5.670;2022-10-28T03:17:23;14.35;;;4.00;;
25125;SDS011;13106;50.808;5.670;2022-10-28T03:19:49;16.20;;;3.72;;
25125;SDS011;13106;50.808;5.670;2022-10-28T03:22:15;12.27;;;4.22;;
25125;SDS011;13106;50.808;5.670;2022-10-28T03:24:41;13.68;;;4.72;;
25125;SDS011;13106;50.808;5.670;2022-10-28T03:27:07;9.43;;;4.22;;
25125;SDS011;13106;50.808;5.670;2022-10-28T03:29:33;13.95;;;4.78;;
25125;SDS011;13106;50.808;5.670;2022-10-28T03:31:59;12.30;;;4.35;;
25125;SDS011;13106;50.808;5.670;2022-10-28T03:34:25;14.65;;;4.07;;
25125;SDS011;13106;50.808;5.670;2022-10-28T03:36:51;16.10;;;4.80;;
25125;SDS011;13106;50.808;5.670;2022-10-28T03:39:17;15.48;;;5.35;;
25125;SDS011;13106;50.808;5.670;2022-10-28T03:41:43;16.23;;;5.00;;
25125;SDS011;13106;50.808;5.670;2022-10-28T03:44:09;12.45;;;4.45;;
25125;SDS011;13106;50.808;5.670;2022-10-28T03:46:35;17.23;;;4.82;;
25125;SDS011;13106;50.808;5.670;2022-10-28T03:49:01;22.65;;;5.30;;
25125;SDS011;13106;50.808;5.670;2022-10-28T03:51:27;13.55;;;4.57;;
25125;SDS011;13106;50.808;5.670;2022-10-28T03:53:53;24.90;;;5.07;;
25125;SDS011;13106;50.808;5.670;2022-10-28T03:56:19;8.73;;;4.10;;
25125;SDS011;13106;50.808;5.670;2022-10-28T03:58:46;14.65;;;4.82;;
25125;SDS011;13106;50.808;5.670;2022-10-28T04:01:12;15.25;;;5.05;;
25125;SDS011;13106;50.808;5.670;2022-10-28T04:03:38;14.90;;;4.47;;
25125;SDS011;13106;50.808;5.670;2022-10-28T04:06:04;18.40;;;4.68;;
25125;SDS011;13106;50.808;5.670;2022-10-28T04:08:30;15.80;;;3.95;;
25125;SDS011;13106;50.808;5.670;2022-10-28T04:10:56;14.15;;;4.70;;
25125;SDS011;13106;50.808;5.670;2022-10-28T04:13:22;13.38;;;4.45;;
25125;SDS011;13106;50.808;5.670;2022-10-28T04:15:48;12.48;;;5.03;;
25125;SDS011;13106;50.808;5.670;2022-10-28T04:18:14;17.02;;;4.93;;
25125;SDS011;13106;50.808;5.670;2022-10-28T04:20:40;17.85;;;5.03;;
25125;SDS011;13106;50.808;5.670;2022-10-28T04:23:07;15.15;;;4.70;;
25125;SDS011;13106;50.808;5.670;2022-10-28T04:25:33;11.13;;;4.45;;
25125;SDS011;13106;50.808;5.670;2022-10-28T04:27:59;13.63;;;5.13;;
25125;SDS011;13106;50.808;5.670;2022-10-28T04:30:25;14.43;;;4.75;;
25125;SDS011;13106;50.808;5.670;2022-10-28T04:32:51;15.95;;;5.05;;
25125;SDS011;13106;50.808;5.670;2022-10-28T04:35:17;15.23;;;5.20;;
25125;SDS011;13106;50.808;5.670;2022-10-28T04:37:43;16.60;;;5.20;;
25125;SDS011;13106;50.808;5.670;2022-10-28T04:40:09;14.75;;;4.40;;
25125;SDS011;13106;50.808;5.670;2022-10-28T04:42:35;16.40;;;5.50;;
25125;SDS011;13106;50.808;5.670;2022-10-28T04:45:01;18.52;;;4.70;;
25125;SDS011;13106;50.808;5.670;2022-10-28T04:47:27;12.32;;;4.78;;
25125;SDS011;13106;50.808;5.670;2022-10-28T04:49:53;11.90;;;4.60;;
25125;SDS011;13106;50.808;5.670;2022-10-28T04:52:19;11.55;;;4.50;;
25125;SDS011;13106;50.808;5.670;2022-10-28T04:54:45;20.85;;;5.25;;
25125;SDS011;13106;50.808;5.670;2022-10-28T04:57:11;19.48;;;5.40;;
25125;SDS011;13106;50.808;5.670;2022-10-28T04:59:37;19.52;;;5.47;;
25125;SDS011;13106;50.808;5.670;2022-10-28T05:02:03;16.20;;;5.53;;
25125;SDS011;13106;50.808;5.670;2022-10-28T05:04:29;13.63;;;5.00;;
25125;SDS011;13106;50.808;5.670;2022-10-28T05:06:55;12.80;;;5.15;;
25125;SDS011;13106;50.808;5.670;2022-10-28T05:09:21;16.15;;;4.90;;
25125;SDS011;13106;50.808;5.670;2022-10-28T05:11:47;17.85;;;5.47;;
25125;SDS011;13106;50.808;5.670;2022-10-28T05:14:13;18.33;;;4.97;;
25125;SDS011;13106;50.808;5.670;2022-10-28T05:16:40;17.35;;;4.95;;
25125;SDS011;13106;50.808;5.670;2022-10-28T05:19:05;25.20;;;6.22;;
25125;SDS011;13106;50.808;5.670;2022-10-28T05:21:31;23.77;;;5.82;;
25125;SDS011;13106;50.808;5.670;2022-10-28T05:23:58;21.55;;;5.82;;
25125;SDS011;13106;50.808;5.670;2022-10-28T05:26:23;19.02;;;5.85;;
25125;SDS011;13106;50.808;5.670;2022-10-28T05:28:50;21.25;;;6.07;;
25125;SDS011;13106;50.808;5.670;2022-10-28T05:31:16;20.08;;;5.47;;
25125;SDS011;13106;50.808;5.670;2022-10-28T05:33:43;25.25;;;5.97;;
25125;SDS011;13106;50.808;5.670;2022-10-28T05:36:09;13.65;;;5.25;;
25125;SDS011;13106;50.808;5.670;2022-10-28T05:38:35;17.70;;;6.22;;
25125;SDS011;13106;50.808;5.670;2022-10-28T05:41:01;16.33;;;6.15;;
25125;SDS011;13106;50.808;5.670;2022-10-28T05:43:27;14.52;;;5.53;;
25125;SDS011;13106;50.808;5.670;2022-10-28T05:45:54;18.30;;;5.82;;
25125;SDS011;13106;50.808;5.670;2022-10-28T05:48:20;16.80;;;5.70;;
25125;SDS011;13106;50.808;5.670;2022-10-28T05:50:46;28.05;;;7.10;;
25125;SDS011;13106;50.808;5.670;2022-10-28T05:53:12;24.65;;;6.75;;
25125;SDS011;13106;50.808;5.670;2022-10-28T05:55:38;16.60;;;6.00;;
25125;SDS011;13106;50.808;5.670;2022-10-28T05:58:04;17.00;;;5.80;;
25125;SDS011;13106;50.808;5.670;2022-10-28T06:00:30;20.70;;;5.60;;
25125;SDS011;13106;50.808;5.670;2022-10-28T06:03:00;18.60;;;5.90;;
25125;SDS011;13106;50.808;5.670;2022-10-28T06:05:27;22.63;;;6.10;;
25125;SDS011;13106;50.808;5.670;2022-10-28T06:07:53;16.27;;;5.15;;
25125;SDS011;13106;50.808;5.670;2022-10-28T06:10:19;18.48;;;5.60;;
25125;SDS011;13106;50.808;5.670;2022-10-28T06:12:45;14.82;;;5.60;;
25125;SDS011;13106;50.808;5.670;2022-10-28T06:15:11;21.70;;;5.97;;
25125;SDS011;13106;50.808;5.670;2022-10-28T06:17:37;18.10;;;5.22;;
25125;SDS011;13106;50.808;5.670;2022-10-28T06:20:03;17.17;;;5.28;;
25125;SDS011;13106;50.808;5.670;2022-10-28T06:22:29;20.33;;;5.93;;
25125;SDS011;13106;50.808;5.670;2022-10-28T06:24:55;19.55;;;5.78;;
25125;SDS011;13106;50.808;5.670;2022-10-28T06:27:21;19.13;;;5.72;;
25125;SDS011;13106;50.808;5.670;2022-10-28T06:29:47;22.08;;;5.80;;
25125;SDS011;13106;50.808;5.670;2022-10-28T06:32:13;20.33;;;5.40;;
25125;SDS011;13106;50.808;5.670;2022-10-28T06:34:39;24.05;;;6.25;;
25125;SDS011;13106;50.808;5.670;2022-10-28T06:37:05;19.27;;;6.03;;
25125;SDS011;13106;50.808;5.670;2022-10-28T06:39:31;32.83;;;7.07;;
25125;SDS011;13106;50.808;5.670;2022-10-28T06:41:58;28.67;;;6.35;;
25125;SDS011;13106;50.808;5.670;2022-10-28T06:44:24;25.45;;;6.70;;
25125;SDS011;13106;50.808;5.670;2022-10-28T06:46:50;20.23;;;5.78;;
25125;SDS011;13106;50.808;5.670;2022-10-28T06:49:16;28.45;;;7.05;;
25125;SDS011;13106;50.808;5.670;2022-10-28T06:51:42;21.38;;;6.85;;
25125;SDS011;13106;50.808;5.670;2022-10-28T06:54:08;28.00;;;6.55;;
25125;SDS011;13106;50.808;5.670;2022-10-28T06:56:34;23.67;;;6.63;;
25125;SDS011;13106;50.808;5.670;2022-10-28T06:59:00;24.67;;;6.38;;
25125;SDS011;13106;50.808;5.670;2022-10-28T07:01:26;22.15;;;6.60;;
25125;SDS011;13106;50.808;5.670;2022-10-28T07:03:52;20.73;;;5.70;;
25125;SDS011;13106;50.808;5.670;2022-10-28T07:06:18;19.27;;;6.28;;
25125;SDS011;13106;50.808;5.670;2022-10-28T07:08:44;23.58;;;6.50;;
25125;SDS011;13106;50.808;5.670;2022-10-28T07:11:10;20.50;;;6.63;;
25125;SDS011;13106;50.808;5.670;2022-10-28T07:13:36;22.30;;;7.00;;
25125;SDS011;13106;50.808;5.670;2022-10-28T07:16:02;22.67;;;6.95;;
25125;SDS011;13106;50.808;5.670;2022-10-28T07:18:29;25.17;;;7.25;;
25125;SDS011;13106;50.808;5.670;2022-10-28T07:20:59;23.33;;;6.53;;
25125;SDS011;13106;50.808;5.670;2022-10-28T07:25:52;19.30;;;6.00;;
25125;SDS011;13106;50.808;5.670;2022-10-28T07:28:19;21.38;;;5.95;;
25125;SDS011;13106;50.808;5.670;2022-10-28T07:30:45;20.35;;;6.35;;
25125;SDS011;13106;50.808;5.670;2022-10-28T07:33:11;22.63;;;6.45;;
25125;SDS011;13106;50.808;5.670;2022-10-28T07:35:37;30.30;;;6.97;;
25125;SDS011;13106;50.808;5.670;2022-10-28T07:38:03;25.27;;;7.53;;
25125;SDS011;13106;50.808;5.670;2022-10-28T07:40:29;22.67;;;6.45;;
25125;SDS011;13106;50.808;5.670;2022-10-28T07:42:56;22.27;;;6.57;;
25125;SDS011;13106;50.808;5.670;2022-10-28T07:45:22;25.02;;;6.85;;
25125;SDS011;13106;50.808;5.670;2022-10-28T07:47:48;29.33;;;7.45;;
25125;SDS011;13106;50.808;5.670;2022-10-28T07:50:14;27.80;;;7.53;;
25125;SDS011;13106;50.808;5.670;2022-10-28T07:52:40;30.98;;;6.50;;
25125;SDS011;13106;50.808;5.670;2022-10-28T07:55:06;32.03;;;7.32;;
25125;SDS011;13106;50.808;5.670;2022-10-28T07:57:33;27.88;;;7.22;;
25125;SDS011;13106;50.808;5.670;2022-10-28T07:59:59;24.77;;;6.90;;
25125;SDS011;13106;50.808;5.670;2022-10-28T08:02:26;29.58;;;6.78;;
25125;SDS011;13106;50.808;5.670;2022-10-28T08:04:52;30.63;;;7.05;;
25125;SDS011;13106;50.808;5.670;2022-10-28T08:07:18;34.08;;;7.07;;
25125;SDS011;13106;50.808;5.670;2022-10-28T08:09:44;41.05;;;8.20;;
25125;SDS011;13106;50.808;5.670;2022-10-28T08:12:11;32.20;;;9.80;;
25125;SDS011;13106;50.808;5.670;2022-10-28T08:14:37;42.85;;;10.93;;
25125;SDS011;13106;50.808;5.670;2022-10-28T08:17:04;34.40;;;10.05;;
25125;SDS011;13106;50.808;5.670;2022-10-28T08:19:30;36.80;;;11.98;;
25125;SDS011;13106;50.808;5.670;2022-10-28T08:21:56;52.55;;;19.05;;
25125;SDS011;13106;50.808;5.670;2022-10-28T08:24:22;59.53;;;23.58;;
25125;SDS011;13106;50.808;5.670;2022-10-28T08:26:48;46.42;;;14.23;;
25125;SDS011;13106;50.808;5.670;2022-10-28T08:29:15;40.10;;;15.48;;
25125;SDS011;13106;50.808;5.670;2022-10-28T08:31:41;32.65;;;11.25;;
25125;SDS011;13106;50.808;5.670;2022-10-28T08:34:07;36.78;;;12.60;;
25125;SDS011;13106;50.808;5.670;2022-10-28T08:36:33;43.05;;;12.93;;
25125;SDS011;13106;50.808;5.670;2022-10-28T08:38:59;24.50;;;8.00;;
25125;SDS011;13106;50.808;5.670;2022-10-28T08:41:37;19.77;;;6.38;;
25125;SDS011;13106;50.808;5.670;2022-10-28T08:44:17;22.88;;;7.30;;
25125;SDS011;13106;50.808;5.670;2022-10-28T08:46:52;29.38;;;10.68;;
25125;SDS011;13106;50.808;5.670;2022-10-28T08:49:22;25.23;;;9.68;;
25125;SDS011;13106;50.808;5.670;2022-10-28T08:51:51;20.80;;;9.57;;
25125;SDS011;13106;50.808;5.670;2022-10-28T08:56:44;14.93;;;4.90;;
25125;SDS011;13106;50.808;5.670;2022-10-28T08:59:13;14.05;;;5.10;;
25125;SDS011;13106;50.808;5.670;2022-10-28T09:01:47;17.88;;;4.80;;
25125;SDS011;13106;50.808;5.670;2022-10-28T09:06:43;14.27;;;4.47;;
25125;SDS011;13106;50.808;5.670;2022-10-28T09:09:11;17.60;;;4.47;;
25125;SDS011;13106;50.808;5.670;2022-10-28T09:16:48;23.70;;;4.55;;
25125;SDS011;13106;50.808;5.670;2022-10-28T09:30:01;16.50;;;3.90;;
25125;SDS011;13106;50.808;5.670;2022-10-28T09:35:10;14.60;;;4.35;;
25125;SDS011;13106;50.808;5.670;2022-10-28T09:37:39;13.45;;;3.70;;
25125;SDS011;13106;50.808;5.670;2022-10-28T09:42:40;16.67;;;3.75;;
25125;SDS011;13106;50.808;5.670;2022-10-28T09:45:16;19.95;;;4.05;;
25125;SDS011;13106;50.808;5.670;2022-10-28T09:47:43;18.55;;;3.60;;
25125;SDS011;13106;50.808;5.670;2022-10-28T09:50:12;12.88;;;3.80;;
25125;SDS011;13106;50.808;5.670;2022-10-28T09:52:42;17.88;;;3.83;;
25125;SDS011;13106;50.808;5.670;2022-10-28T09:55:15;11.98;;;3.38;;
25125;SDS011;13106;50.808;5.670;2022-10-28T09:57:43;19.08;;;4.20;;
25125;SDS011;13106;50.808;5.670;2022-10-28T10:00:13;16.25;;;4.00;;
25125;SDS011;13106;50.808;5.670;2022-10-28T10:02:39;19.10;;;4.30;;
25125;SDS011;13106;50.808;5.670;2022-10-28T10:05:10;13.55;;;3.92;;
25125;SDS011;13106;50.808;5.670;2022-10-28T10:07:42;13.48;;;4.47;;
25125;SDS011;13106;50.808;5.670;2022-10-28T10:10:11;14.38;;;4.10;;
25125;SDS011;13106;50.808;5.670;2022-10-28T10:12:38;15.40;;;3.97;;
25125;SDS011;13106;50.808;5.670;2022-10-28T10:15:04;13.82;;;4.07;;
25125;SDS011;13106;50.808;5.670;2022-10-28T10:17:42;17.95;;;3.97;;
25125;SDS011;13106;50.808;5.670;2022-10-28T10:20:10;16.75;;;3.95;;
25125;SDS011;13106;50.808;5.670;2022-10-28T10:22:43;18.05;;;3.40;;
25125;SDS011;13106;50.808;5.670;2022-10-28T10:25:20;17.65;;;3.78;;
25125;SDS011;13106;50.808;5.670;2022-10-28T10:30:29;13.38;;;3.33;;
25125;SDS011;13106;50.808;5.670;2022-10-28T10:32:56;14.00;;;3.42;;
25125;SDS011;13106;50.808;5.670;2022-10-28T10:35:36;15.73;;;3.72;;
25125;SDS011;13106;50.808;5.670;2022-10-28T10:40:29;13.00;;;3.38;;
25125;SDS011;13106;50.808;5.670;2022-10-28T10:42:55;16.42;;;3.53;;
25125;SDS011;13106;50.808;5.670;2022-10-28T10:45:38;15.32;;;3.63;;
25125;SDS011;13106;50.808;5.670;2022-10-28T10:48:14;12.02;;;3.42;;
25125;SDS011;13106;50.808;5.670;2022-10-28T10:50:42;15.95;;;3.33;;
25125;SDS011;13106;50.808;5.670;2022-10-28T10:53:23;12.90;;;3.55;;
25125;SDS011;13106;50.808;5.670;2022-10-28T10:55:54;13.63;;;3.60;;
25125;SDS011;13106;50.808;5.670;2022-10-28T10:58:21;15.43;;;3.60;;
25125;SDS011;13106;50.808;5.670;2022-10-28T11:00:51;12.63;;;3.63;;
25125;SDS011;13106;50.808;5.670;2022-10-28T11:03:26;11.32;;;3.10;;
25125;SDS011;13106;50.808;5.670;2022-10-28T11:05:54;15.85;;;3.38;;
25125;SDS011;13106;50.808;5.670;2022-10-28T11:08:25;12.88;;;3.08;;
25125;SDS011;13106;50.808;5.670;2022-10-28T11:13:37;16.73;;;3.47;;
25125;SDS011;13106;50.808;5.670;2022-10-28T11:16:05;17.60;;;3.47;;
25125;SDS011;13106;50.808;5.670;2022-10-28T11:18:39;14.77;;;3.38;;
25125;SDS011;13106;50.808;5.670;2022-10-28T11:21:43;18.48;;;4.03;;
25125;SDS011;13106;50.808;5.670;2022-10-28T11:26:38;11.68;;;3.55;;
25125;SDS011;13106;50.808;5.670;2022-10-28T11:29:07;14.18;;;3.10;;
25125;SDS011;13106;50.808;5.670;2022-10-28T11:37:06;14.40;;;3.42;;
25125;SDS011;13106;50.808;5.670;2022-10-28T11:57:41;21.65;;;3.63;;
25125;SDS011;13106;50.808;5.670;2022-10-28T12:05:26;22.48;;;4.10;;
25125;SDS011;13106;50.808;5.670;2022-10-28T12:13:38;17.77;;;3.80;;
25125;SDS011;13106;50.808;5.670;2022-10-28T12:16:29;16.33;;;3.67;;
25125;SDS011;13106;50.808;5.670;2022-10-28T12:19:05;11.65;;;3.08;;
25125;SDS011;13106;50.808;5.670;2022-10-28T12:21:38;18.35;;;3.63;;
25125;SDS011;13106;50.808;5.670;2022-10-28T12:24:05;16.90;;;3.45;;
25125;SDS011;13106;50.808;5.670;2022-10-28T12:26:39;15.65;;;3.80;;
25125;SDS011;13106;50.808;5.670;2022-10-28T12:29:12;13.80;;;3.17;;
25125;SDS011;13106;50.808;5.670;2022-10-28T12:31:44;16.50;;;3.40;;
25125;SDS011;13106;50.808;5.670;2022-10-28T12:34:12;14.50;;;3.50;;
25125;SDS011;13106;50.808;5.670;2022-10-28T12:36:52;16.83;;;3.38;;
25125;SDS011;13106;50.808;5.670;2022-10-28T12:39:23;15.88;;;3.65;;
25125;SDS011;13106;50.808;5.670;2022-10-28T12:41:55;15.60;;;3.45;;
25125;SDS011;13106;50.808;5.670;2022-10-28T12:44:24;16.92;;;3.67;;
25125;SDS011;13106;50.808;5.670;2022-10-28T12:46:54;19.40;;;3.78;;
25125;SDS011;13106;50.808;5.670;2022-10-28T12:49:34;15.93;;;3.42;;
25125;SDS011;13106;50.808;5.670;2022-10-28T12:52:03;16.65;;;3.70;;
25125;SDS011;13106;50.808;5.670;2022-10-28T12:54:41;18.45;;;3.72;;
25125;SDS011;13106;50.808;5.670;2022-10-28T12:57:12;17.65;;;3.63;;
25125;SDS011;13106;50.808;5.670;2022-10-28T12:59:41;13.85;;;3.60;;
25125;SDS011;13106;50.808;5.670;2022-10-28T13:02:19;18.65;;;3.95;;
25125;SDS011;13106;50.808;5.670;2022-10-28T13:04:46;14.10;;;3.30;;
25125;SDS011;13106;50.808;5.670;2022-10-28T13:10:41;14.45;;;3.47;;
25125;SDS011;13106;50.808;5.670;2022-10-28T13:28:29;17.90;;;3.72;;
25125;SDS011;13106;50.808;5.670;2022-10-28T13:30:56;15.73;;;3.72;;
25125;SDS011;13106;50.808;5.670;2022-10-28T13:33:24;12.55;;;3.28;;
25125;SDS011;13106;50.808;5.670;2022-10-28T13:35:51;11.70;;;3.30;;
25125;SDS011;13106;50.808;5.670;2022-10-28T13:38:20;17.13;;;3.90;;
25125;SDS011;13106;50.808;5.670;2022-10-28T13:43:18;18.40;;;4.38;;
25125;SDS011;13106;50.808;5.670;2022-10-28T13:45:52;22.23;;;3.95;;
25125;SDS011;13106;50.808;5.670;2022-10-28T13:56:18;13.93;;;4.32;;
25125;SDS011;13106;50.808;5.670;2022-10-28T13:59:27;14.75;;;4.43;;
25125;SDS011;13106;50.808;5.670;2022-10-28T14:04:03;16.87;;;4.77;;
25125;SDS011;13106;50.808;5.670;2022-10-28T14:06:30;19.42;;;4.65;;
25125;SDS011;13106;50.808;5.670;2022-10-28T14:08:57;17.38;;;4.05;;
25125;SDS011;13106;50.808;5.670;2022-10-28T14:11:23;19.08;;;4.50;;
25125;SDS011;13106;50.808;5.670;2022-10-28T14:13:53;18.15;;;4.97;;
25125;SDS011;13106;50.808;5.670;2022-10-28T14:16:24;16.45;;;3.45;;
25125;SDS011;13106;50.808;5.670;2022-10-28T14:18:52;17.13;;;3.83;;
25125;SDS011;13106;50.808;5.670;2022-10-28T14:21:20;21.90;;;5.07;;
25125;SDS011;13106;50.808;5.670;2022-10-28T14:23:59;13.88;;;3.85;;
25125;SDS011;13106;50.808;5.670;2022-10-28T14:26:29;16.55;;;3.80;;
25125;SDS011;13106;50.808;5.670;2022-10-28T14:28:55;18.17;;;3.60;;
25125;SDS011;13106;50.808;5.670;2022-10-28T14:31:38;13.70;;;3.95;;
25125;SDS011;13106;50.808;5.670;2022-10-28T14:36:34;20.27;;;4.30;;
25125;SDS011;13106;50.808;5.670;2022-10-28T14:49:19;15.15;;;4.07;;
25125;SDS011;13106;50.808;5.670;2022-10-28T14:51:46;19.02;;;4.40;;
25125;SDS011;13106;50.808;5.670;2022-10-28T14:54:14;13.63;;;4.20;;
25125;SDS011;13106;50.808;5.670;2022-10-28T14:56:40;19.67;;;4.38;;
25125;SDS011;13106;50.808;5.670;2022-10-28T14:59:28;15.90;;;4.60;;
25125;SDS011;13106;50.808;5.670;2022-10-28T15:01:58;11.73;;;4.40;;
25125;SDS011;13106;50.808;5.670;2022-10-28T15:04:24;13.77;;;3.80;;
25125;SDS011;13106;50.808;5.670;2022-10-28T15:06:50;14.63;;;4.57;;
25125;SDS011;13106;50.808;5.670;2022-10-28T15:12:05;16.80;;;3.90;;
25125;SDS011;13106;50.808;5.670;2022-10-28T15:14:39;15.23;;;4.40;;
25125;SDS011;13106;50.808;5.670;2022-10-28T15:17:10;13.82;;;4.55;;
25125;SDS011;13106;50.808;5.670;2022-10-28T15:19:36;14.95;;;4.53;;
25125;SDS011;13106;50.808;5.670;2022-10-28T15:24:28;13.38;;;4.65;;
25125;SDS011;13106;50.808;5.670;2022-10-28T15:26:55;16.33;;;4.15;;
25125;SDS011;13106;50.808;5.670;2022-10-28T15:29:21;14.43;;;4.05;;
25125;SDS011;13106;50.808;5.670;2022-10-28T15:34:32;19.48;;;4.10;;
25125;SDS011;13106;50.808;5.670;2022-10-28T15:36:58;22.17;;;4.55;;
25125;SDS011;13106;50.808;5.670;2022-10-28T15:39:24;14.35;;;4.00;;
25125;SDS011;13106;50.808;5.670;2022-10-28T15:41:50;17.10;;;5.15;;
25125;SDS011;13106;50.808;5.670;2022-10-28T15:46:55;21.60;;;5.13;;
25125;SDS011;13106;50.808;5.670;2022-10-28T15:55:02;16.65;;;4.50;;
25125;SDS011;13106;50.808;5.670;2022-10-28T15:57:50;18.08;;;4.60;;
25125;SDS011;13106;50.808;5.670;2022-10-28T16:02:52;15.53;;;4.90;;
25125;SDS011;13106;50.808;5.670;2022-10-28T16:08:02;18.70;;;5.18;;
25125;SDS011;13106;50.808;5.670;2022-10-28T16:10:42;15.85;;;5.70;;
25125;SDS011;13106;50.808;5.670;2022-10-28T16:13:13;17.67;;;6.10;;
25125;SDS011;13106;50.808;5.670;2022-10-28T16:15:47;20.92;;;5.63;;
25125;SDS011;13106;50.808;5.670;2022-10-28T16:18:14;20.20;;;5.50;;
25125;SDS011;13106;50.808;5.670;2022-10-28T16:20:40;17.85;;;5.05;;
25125;SDS011;13106;50.808;5.670;2022-10-28T16:23:15;16.50;;;5.38;;
25125;SDS011;13106;50.808;5.670;2022-10-28T16:25:42;24.02;;;5.70;;
25125;SDS011;13106;50.808;5.670;2022-10-28T16:28:14;20.60;;;5.32;;
25125;SDS011;13106;50.808;5.670;2022-10-28T16:30:41;17.23;;;5.47;;
25125;SDS011;13106;50.808;5.670;2022-10-28T16:33:07;13.27;;;4.90;;
25125;SDS011;13106;50.808;5.670;2022-10-28T16:35:34;17.05;;;4.85;;
25125;SDS011;13106;50.808;5.670;2022-10-28T16:38:00;22.80;;;5.70;;
25125;SDS011;13106;50.808;5.670;2022-10-28T16:40:26;16.25;;;4.75;;
25125;SDS011;13106;50.808;5.670;2022-10-28T16:42:52;19.60;;;5.20;;
25125;SDS011;13106;50.808;5.670;2022-10-28T16:45:19;19.15;;;4.47;;
25125;SDS011;13106;50.808;5.670;2022-10-28T16:47:45;20.27;;;5.18;;
25125;SDS011;13106;50.808;5.670;2022-10-28T16:50:11;17.25;;;5.22;;
25125;SDS011;13106;50.808;5.670;2022-10-28T16:52:38;10.40;;;4.75;;
25125;SDS011;13106;50.808;5.670;2022-10-28T16:55:05;17.48;;;4.85;;
25125;SDS011;13106;50.808;5.670;2022-10-28T16:57:31;21.80;;;5.03;;
25125;SDS011;13106;50.808;5.670;2022-10-28T16:59:57;22.95;;;5.50;;
25125;SDS011;13106;50.808;5.670;2022-10-28T17:02:25;26.30;;;5.38;;
25125;SDS011;13106;50.808;5.670;2022-10-28T17:04:52;15.75;;;5.38;;
25125;SDS011;13106;50.808;5.670;2022-10-28T17:07:18;20.25;;;5.75;;
25125;SDS011;13106;50.808;5.670;2022-10-28T17:09:44;21.90;;;5.85;;
25125;SDS011;13106;50.808;5.670;2022-10-28T17:12:14;20.58;;;5.72;;
25125;SDS011;13106;50.808;5.670;2022-10-28T17:14:40;16.30;;;5.25;;
25125;SDS011;13106;50.808;5.670;2022-10-28T17:17:07;22.70;;;7.03;;
25125;SDS011;13106;50.808;5.670;2022-10-28T17:19:34;19.60;;;5.22;;
25125;SDS011;13106;50.808;5.670;2022-10-28T17:22:00;18.45;;;5.10;;
25125;SDS011;13106;50.808;5.670;2022-10-28T17:24:26;19.00;;;5.60;;
25125;SDS011;13106;50.808;5.670;2022-10-28T17:26:52;19.00;;;6.22;;
25125;SDS011;13106;50.808;5.670;2022-10-28T17:29:18;26.75;;;7.15;;
25125;SDS011;13106;50.808;5.670;2022-10-28T17:31:44;21.45;;;6.30;;
25125;SDS011;13106;50.808;5.670;2022-10-28T17:34:10;16.08;;;5.65;;
25125;SDS011;13106;50.808;5.670;2022-10-28T17:36:36;18.60;;;6.30;;
25125;SDS011;13106;50.808;5.670;2022-10-28T17:39:02;18.40;;;5.93;;
25125;SDS011;13106;50.808;5.670;2022-10-28T17:41:28;17.85;;;5.35;;
25125;SDS011;13106;50.808;5.670;2022-10-28T17:43:54;21.75;;;5.25;;
25125;SDS011;13106;50.808;5.670;2022-10-28T17:46:20;16.00;;;5.55;;
25125;SDS011;13106;50.808;5.670;2022-10-28T17:48:46;15.32;;;5.32;;